createdAt,value
2023-03-11T00:04:24.524Z,663.88
2023-03-11T00:09:26.448Z,665.38
2023-03-11T00:14:28.510Z,663.08
2023-03-11T00:19:30.355Z,660.77
2023-03-11T00:24:32.295Z,667.58
2023-03-11T00:29:34.154Z,662.08
2023-03-11T00:34:35.972Z,667.25
2023-03-11T00:39:37.840Z,662.22
2023-03-11T00:44:39.791Z,681.17
2023-03-11T00:49:41.702Z,664.47
2023-03-11T00:54:43.643Z,674.50
2023-03-11T00:59:45.728Z,662.03
2023-03-11T01:04:47.717Z,664.50
2023-03-11T01:09:49.599Z,669.07
2023-03-11T01:14:51.493Z,661.03
2023-03-11T01:19:53.326Z,662.30
2023-03-11T01:24:56.416Z,676.97
2023-03-11T01:29:58.798Z,667.80
2023-03-11T01:35:00.690Z,665.60
2023-03-11T01:40:02.523Z,662.77
2023-03-11T01:45:42.709Z,662.17
2023-03-11T01:50:50.573Z,659.77
2023-03-11T01:55:53.055Z,678.40
2023-03-11T02:00:56.551Z,671.03
2023-03-11T02:06:02.641Z,663.27
2023-03-11T02:11:08.673Z,655.57
2023-03-11T02:16:10.918Z,662.50
2023-03-11T02:21:28.428Z,660.37
2023-03-11T02:26:41.453Z,657.97
2023-03-11T02:31:44.025Z,659.83
2023-03-11T02:36:47.478Z,666.10
2023-03-11T02:41:50.481Z,671.37
2023-03-11T02:46:53.505Z,677.40
2023-03-11T02:51:56.974Z,670.93
2023-03-11T02:56:59.031Z,679.50
2023-03-11T03:02:02.693Z,663.10
2023-03-11T03:07:05.471Z,673.73
2023-03-11T03:12:07.736Z,680.27
2023-03-11T03:17:11.164Z,673.93
2023-03-11T03:22:14.274Z,678.57
2023-03-11T03:27:16.993Z,676.10
2023-03-11T03:32:19.031Z,663.80
2023-03-11T03:37:21.248Z,671.73
2023-03-11T03:42:25.251Z,659.00
2023-03-11T03:47:27.594Z,659.80
2023-03-11T03:52:29.634Z,656.33
2023-03-11T03:57:32.076Z,673.47
2023-03-11T04:02:34.086Z,665.70
2023-03-11T04:07:36.536Z,661.80
2023-03-11T04:12:40.881Z,666.73
2023-03-11T04:17:43.819Z,659.10
2023-03-11T04:22:45.983Z,654.57
2023-03-11T04:27:50.122Z,655.87
2023-03-11T04:32:52.747Z,660.20
2023-03-11T04:37:54.710Z,665.87
2023-03-11T04:42:59.406Z,676.20
2023-03-11T04:48:01.474Z,670.90
2023-03-11T04:53:05.828Z,662.13
2023-03-11T04:58:07.849Z,671.67
2023-03-11T05:03:12.119Z,661.87
2023-03-11T05:08:14.852Z,667.17
2023-03-11T05:13:16.882Z,658.53
2023-03-11T05:18:18.881Z,652.90
2023-03-11T05:23:21.503Z,648.97
2023-03-11T05:28:23.430Z,662.47
2023-03-11T05:33:32.328Z,665.20
2023-03-11T05:38:35.937Z,672.28
2023-03-11T05:43:38.064Z,667.13
2023-03-11T05:48:40.252Z,675.13
2023-03-11T05:53:48.230Z,658.97
2023-03-11T05:58:56.870Z,661.23
2023-03-11T06:04:00.393Z,670.33
2023-03-11T06:09:04.081Z,672.70
2023-03-11T06:14:06.250Z,675.57
2023-03-11T06:19:08.389Z,664.73
2023-03-11T06:24:14.207Z,675.07
2023-03-11T06:29:16.211Z,672.63
2023-03-11T06:34:19.779Z,675.13
2023-03-11T06:39:21.808Z,669.27
2023-03-11T06:44:25.633Z,670.97
2023-03-11T06:49:27.649Z,646.27
2023-03-11T06:54:29.853Z,657.20
2023-03-11T06:59:31.885Z,651.50
2023-03-11T07:04:35.215Z,658.60
2023-03-11T07:09:37.247Z,657.17
2023-03-11T07:14:40.859Z,658.60
2023-03-11T07:19:42.826Z,664.57
2023-03-11T07:24:48.993Z,673.87
2023-03-11T07:29:50.823Z,681.23
2023-03-11T07:34:52.834Z,687.10
2023-03-11T07:39:54.926Z,670.93
2023-03-11T07:44:56.774Z,669.30
2023-03-11T07:49:58.721Z,671.47
2023-03-11T07:55:00.619Z,692.10
2023-03-11T08:00:02.644Z,675.50
2023-03-11T08:05:13.789Z,680.67
2023-03-11T08:10:15.678Z,688.80
2023-03-11T08:15:17.627Z,681.03
2023-03-11T08:20:19.490Z,679.43
2023-03-11T08:25:21.363Z,688.33
2023-03-11T08:30:23.462Z,690.73
2023-03-11T08:35:26.939Z,690.00
2023-03-11T08:40:29.199Z,683.72
2023-03-11T08:45:31.167Z,688.37
2023-03-11T08:50:41.249Z,689.80
2023-03-11T08:55:50.921Z,689.93
2023-03-11T09:00:52.939Z,701.05
2023-03-11T09:05:59.848Z,691.50
2023-03-11T09:11:01.864Z,704.45
2023-03-11T09:16:05.943Z,695.77
2023-03-11T09:21:08.211Z,699.97
2023-03-11T09:26:10.216Z,698.53
2023-03-11T09:31:12.202Z,700.37
2023-03-11T09:36:19.085Z,705.63
2023-03-11T09:41:58.456Z,734.23
2023-03-11T09:47:15.772Z,743.33
2023-03-11T09:52:31.265Z,716.65
2023-03-11T09:57:37.053Z,721.33
2023-03-11T10:02:40.254Z,745.42
2023-03-11T10:07:45.699Z,746.70
2023-03-11T10:13:20.031Z,742.95
2023-03-11T10:18:52.571Z,747.15
2023-03-11T10:24:01.687Z,750.47
2023-03-11T10:29:45.212Z,742.20
2023-03-11T10:35:06.139Z,728.60
2023-03-11T10:40:23.699Z,754.83
2023-03-11T10:45:27.271Z,743.78
2023-03-11T10:50:36.513Z,746.70
2023-03-11T10:55:47.113Z,729.20
2023-03-11T11:01:14.588Z,728.07
2023-03-11T11:06:30.227Z,737.88
2023-03-11T11:11:35.243Z,723.60
2023-03-11T11:16:37.604Z,719.47
2023-03-11T11:21:43.491Z,727.83
2023-03-11T11:27:04.754Z,735.60
2023-03-11T11:32:21.960Z,745.92
2023-03-11T11:37:26.906Z,738.47
2023-03-11T11:42:31.357Z,743.33
2023-03-11T11:47:39.517Z,750.50
2023-03-11T11:52:46.287Z,741.58
2023-03-11T11:57:49.008Z,753.03
2023-03-11T12:03:06.433Z,760.53
2023-03-11T12:08:26.976Z,755.78
2023-03-11T12:13:46.730Z,758.00
2023-03-11T12:18:58.915Z,746.88
2023-03-11T12:24:21.010Z,758.13
2023-03-11T12:29:34.425Z,748.55
2023-03-11T12:34:36.398Z,735.63
2023-03-11T12:39:39.465Z,754.15
2023-03-11T12:44:42.013Z,699.78
2023-03-11T12:49:46.763Z,732.35
2023-03-11T12:55:01.371Z,688.90
2023-03-11T13:00:12.445Z,682.33
2023-03-11T13:05:44.942Z,694.50
2023-03-11T13:10:51.558Z,697.22
2023-03-11T13:15:53.705Z,704.92
2023-03-11T13:20:58.352Z,720.67
2023-03-11T13:26:09.468Z,714.08
2023-03-11T13:31:44.278Z,721.40
2023-03-11T13:36:51.434Z,706.33
2023-03-11T13:41:53.810Z,683.65
2023-03-11T13:47:05.776Z,676.58
2023-03-11T13:52:14.118Z,668.95
2023-03-11T13:57:26.808Z,660.40
2023-03-11T14:02:29.162Z,648.15
2023-03-11T14:07:38.537Z,633.55
2023-03-11T14:12:40.411Z,636.17
2023-03-11T14:17:44.101Z,627.60
2023-03-11T14:22:49.464Z,605.75
2023-03-11T14:28:04.549Z,585.45
2023-03-11T14:33:24.821Z,567.72
2023-03-11T14:38:31.611Z,574.78
2023-03-11T14:43:37.898Z,598.75
2023-03-11T14:48:43.845Z,594.55
2023-03-11T14:54:06.214Z,611.45
2023-03-11T14:59:13.981Z,607.13
2023-03-11T15:04:26.905Z,601.20
2023-03-11T15:09:29.829Z,615.83
2023-03-11T15:14:37.002Z,588.88
2023-03-11T15:19:38.992Z,585.72
2023-03-11T15:24:41.190Z,567.42
2023-03-11T15:29:52.689Z,577.85
2023-03-11T15:35:15.634Z,567.38
2023-03-11T15:40:30.086Z,573.25
2023-03-11T15:45:37.764Z,601.72
2023-03-11T15:50:53.272Z,599.50
2023-03-11T15:56:06.534Z,614.13
2023-03-11T16:01:10.012Z,608.75
2023-03-11T16:06:12.738Z,597.97
2023-03-11T16:11:16.095Z,589.25
2023-03-11T16:16:18.558Z,569.95
2023-03-11T16:21:23.712Z,578.72
2023-03-11T16:26:25.637Z,568.15
2023-03-11T16:31:28.360Z,563.63
2023-03-11T16:36:30.484Z,572.13
2023-03-11T16:41:42.557Z,587.55
2023-03-11T16:46:44.707Z,577.15
2023-03-11T16:51:46.899Z,568.47
2023-03-11T16:56:49.105Z,558.55
2023-03-11T17:01:51.393Z,590.97
2023-03-11T17:06:54.558Z,549.33
2023-03-11T17:11:56.984Z,564.97
2023-03-11T17:17:00.115Z,612.75
2023-03-11T17:22:02.566Z,607.30
2023-03-11T17:27:05.556Z,622.67
2023-03-11T17:32:07.863Z,639.95
2023-03-11T17:37:09.734Z,675.97
2023-03-11T17:42:11.627Z,679.75
2023-03-11T17:47:13.596Z,690.95
2023-03-11T17:52:15.755Z,715.72
2023-03-11T17:57:17.961Z,720.50
2023-03-11T18:02:20.461Z,700.25
2023-03-11T18:07:23.751Z,686.20
2023-03-11T18:12:25.737Z,701.00
2023-03-11T18:17:29.008Z,690.85
2023-03-11T18:22:35.554Z,693.35
2023-03-11T18:27:37.999Z,694.33
2023-03-11T18:32:40.385Z,688.03
2023-03-11T18:37:42.326Z,659.95
2023-03-11T18:42:44.209Z,717.10
2023-03-11T18:47:46.223Z,720.60
2023-03-11T18:52:51.915Z,716.03
2023-03-11T18:57:54.148Z,711.28
2023-03-11T19:02:56.022Z,705.20
2023-03-11T19:07:57.914Z,713.33
2023-03-11T19:12:59.800Z,687.17
2023-03-11T19:18:06.906Z,692.15
2023-03-11T19:28:11.362Z,705.42
2023-03-11T19:33:13.276Z,699.45
2023-03-11T19:38:15.144Z,692.75
2023-03-11T19:43:19.313Z,704.30
2023-03-11T19:48:21.291Z,703.17
2023-03-11T19:53:23.216Z,707.92
2023-03-11T19:58:30.100Z,708.20
2023-03-11T20:03:32.481Z,711.15
2023-03-11T20:08:36.826Z,714.58
2023-03-11T20:13:41.109Z,698.77
2023-03-11T20:18:43.106Z,715.00
2023-03-11T20:23:45.073Z,682.97
2023-03-11T20:28:47.418Z,682.40
2023-03-11T20:33:52.145Z,684.22
2023-03-11T20:38:55.360Z,682.05
2023-03-11T20:43:57.760Z,686.23
2023-03-11T20:49:00.744Z,677.70
2023-03-11T20:54:02.722Z,686.90
2023-03-11T20:59:07.102Z,682.83
2023-03-11T21:04:10.569Z,679.17
2023-03-11T21:09:14.667Z,684.85
2023-03-11T21:14:18.621Z,684.63
2023-03-11T21:19:22.468Z,691.17
2023-03-11T21:24:24.416Z,685.88
2023-03-11T21:29:26.316Z,687.00
2023-03-11T21:34:29.351Z,692.00
2023-03-11T21:39:31.258Z,692.13
2023-03-11T21:44:33.196Z,686.08
2023-03-11T21:49:35.427Z,688.97
2023-03-11T21:54:37.269Z,691.65
2023-03-11T21:59:39.308Z,690.42
2023-03-11T22:04:41.652Z,687.65
2023-03-11T22:09:43.775Z,697.25
2023-03-11T22:14:45.734Z,693.58
2023-03-11T22:19:47.825Z,687.58
2023-03-11T22:24:49.652Z,687.63
2023-03-11T22:29:51.605Z,692.00
2023-03-11T22:34:53.513Z,690.40
2023-03-11T22:39:55.360Z,685.35
2023-03-11T22:44:57.218Z,695.50
2023-03-11T22:49:59.261Z,691.13
2023-03-11T22:55:01.111Z,688.70
2023-03-11T23:00:05.220Z,685.85
2023-03-11T23:05:07.406Z,689.17
2023-03-11T23:10:11.648Z,685.67
2023-03-11T23:15:16.982Z,685.33
2023-03-11T23:20:19.028Z,683.63
2023-03-11T23:25:21.089Z,684.65
2023-03-11T23:30:23.139Z,685.97
2023-03-11T23:35:25.089Z,683.00
2023-03-11T23:40:27.012Z,687.30
2023-03-11T23:45:28.844Z,685.58
2023-03-11T23:50:30.712Z,680.55
2023-03-11T23:55:36.357Z,684.03
